createdAt,value
2023-02-09T00:00:48.383Z,1.21
2023-02-09T00:02:20.455Z,1.16
2023-02-09T00:03:52.892Z,1.16
2023-02-09T00:05:24.912Z,1.15
2023-02-09T00:06:57.898Z,1.15
2023-02-09T00:08:31.913Z,1.16
2023-02-09T00:10:04.940Z,1.22
2023-02-09T00:11:55.571Z,1.22
2023-02-09T00:13:27.997Z,1.21
2023-02-09T00:14:59.919Z,1.18
2023-02-09T00:16:32.051Z,1.20
2023-02-09T00:18:04.389Z,1.20
2023-02-09T00:19:36.481Z,1.20
2023-02-09T00:21:11.442Z,1.21
2023-02-09T00:22:43.711Z,1.20
2023-02-09T00:24:16.004Z,1.21
2023-02-09T00:25:48.151Z,1.21
2023-02-09T00:27:20.272Z,1.21
2023-02-09T00:28:52.571Z,1.19
2023-02-09T00:30:25.623Z,1.19
2023-02-09T00:31:57.745Z,1.19
2023-02-09T00:33:29.772Z,1.19
2023-02-09T00:35:01.837Z,1.17
2023-02-09T00:36:34.437Z,1.14
2023-02-09T00:38:06.660Z,1.13
2023-02-09T00:39:38.828Z,1.11
2023-02-09T00:41:12.280Z,1.08
2023-02-09T00:42:44.903Z,1.06
2023-02-09T00:44:17.133Z,1.09
2023-02-09T00:45:49.174Z,1.08
2023-02-09T00:47:21.259Z,1.09
2023-02-09T00:48:54.449Z,1.04
2023-02-09T00:50:27.454Z,1.02
2023-02-09T00:51:59.471Z,1.02
2023-02-09T00:53:31.483Z,1.01
2023-02-09T00:55:04.034Z,0.98
2023-02-09T00:56:36.093Z,0.94
2023-02-09T00:58:08.318Z,0.91
2023-02-09T00:59:42.693Z,0.92
2023-02-09T01:01:14.885Z,0.92
2023-02-09T01:02:47.037Z,0.91
2023-02-09T01:04:19.315Z,0.90
2023-02-09T01:05:53.624Z,0.89
2023-02-09T01:07:25.873Z,0.89
2023-02-09T01:08:58.417Z,0.86
2023-02-09T01:10:30.483Z,0.83
2023-02-09T01:12:02.473Z,0.79
2023-02-09T01:13:35.726Z,0.77
2023-02-09T01:15:09.650Z,0.77
2023-02-09T01:16:41.725Z,0.73
2023-02-09T01:18:13.762Z,0.68
2023-02-09T01:19:46.651Z,0.68
2023-02-09T01:21:20.936Z,0.65
2023-02-09T01:22:52.955Z,0.65
2023-02-09T01:24:24.926Z,0.61
2023-02-09T01:26:08.639Z,0.58
2023-02-09T01:27:42.635Z,0.57
2023-02-09T01:29:19.257Z,0.58
2023-02-09T01:30:52.828Z,0.55
2023-02-09T01:32:25.822Z,0.54
2023-02-09T01:33:59.884Z,0.54
2023-02-09T01:35:32.636Z,0.56
2023-02-09T01:37:05.159Z,0.55
2023-02-09T01:38:37.209Z,0.57
2023-02-09T01:40:10.092Z,0.55
2023-02-09T01:41:41.970Z,0.56
2023-02-09T01:43:16.395Z,0.51
2023-02-09T01:45:35.368Z,0.48
2023-02-09T01:47:14.164Z,0.40
2023-02-09T01:48:47.194Z,0.40
2023-02-09T01:50:19.410Z,0.38
2023-02-09T01:51:56.337Z,0.30
2023-02-09T01:53:30.246Z,0.27
2023-02-09T01:55:07.213Z,0.27
2023-02-09T01:56:44.350Z,0.23
2023-02-09T01:58:19.270Z,0.19
2023-02-09T01:59:54.870Z,0.19
2023-02-09T02:01:27.152Z,0.18
2023-02-09T02:03:05.121Z,0.15
2023-02-09T02:05:11.593Z,0.16
2023-02-09T02:06:44.001Z,0.14
2023-02-09T02:08:32.608Z,0.12
2023-02-09T02:10:05.487Z,0.13
2023-02-09T02:11:37.429Z,0.12
2023-02-09T02:13:09.596Z,0.09
2023-02-09T02:14:41.892Z,0.09
2023-02-09T02:16:16.798Z,0.10
2023-02-09T02:18:14.512Z,0.10
2023-02-09T02:20:11.720Z,0.08
2023-02-09T02:22:21.206Z,0.09
2023-02-09T02:24:23.900Z,0.03
2023-02-09T02:26:01.834Z,0.02
2023-02-09T02:27:41.948Z,-0.01
2023-02-09T02:29:44.979Z,-0.05
2023-02-09T02:31:34.480Z,-0.06
2023-02-09T02:33:17.821Z,-0.11
2023-02-09T02:35:08.264Z,-0.10
2023-02-09T02:36:45.597Z,-0.14
2023-02-09T02:38:26.251Z,-0.15
2023-02-09T02:40:04.359Z,-0.17
2023-02-09T02:42:24.592Z,-0.19
2023-02-09T02:44:02.964Z,-0.17
2023-02-09T02:46:01.181Z,-0.18
2023-02-09T02:47:35.637Z,-0.16
2023-02-09T02:49:16.733Z,-0.21
2023-02-09T02:50:56.708Z,-0.23
2023-02-09T02:52:28.832Z,-0.27
2023-02-09T02:54:03.808Z,-0.28
2023-02-09T02:55:37.345Z,-0.29
2023-02-09T02:57:13.698Z,-0.28
2023-02-09T02:58:46.828Z,-0.28
2023-02-09T03:00:23.067Z,-0.31
2023-02-09T03:01:59.855Z,-0.36
2023-02-09T03:03:34.271Z,-0.37
2023-02-09T03:05:07.527Z,-0.35
2023-02-09T03:06:39.716Z,-0.36
2023-02-09T03:08:12.241Z,-0.33
2023-02-09T03:09:55.798Z,-0.32
2023-02-09T03:11:32.695Z,-0.33
2023-02-09T03:13:14.433Z,-0.33
2023-02-09T03:15:07.931Z,-0.34
2023-02-09T03:16:55.452Z,-0.28
2023-02-09T03:18:59.963Z,-0.29
2023-02-09T03:20:47.568Z,-0.28
2023-02-09T03:22:31.813Z,-0.29
2023-02-09T03:24:20.269Z,-0.33
2023-02-09T03:25:52.942Z,-0.33
2023-02-09T03:27:42.722Z,-0.31
2023-02-09T03:29:16.291Z,-0.33
2023-02-09T03:30:50.603Z,-0.34
2023-02-09T03:32:23.175Z,-0.34
2023-02-09T03:33:57.403Z,-0.35
2023-02-09T03:35:36.582Z,-0.34
2023-02-09T03:37:08.644Z,-0.36
2023-02-09T03:38:43.062Z,-0.36
2023-02-09T03:40:15.314Z,-0.36
2023-02-09T03:41:50.387Z,-0.40
2023-02-09T03:43:42.411Z,-0.40
2023-02-09T03:45:14.642Z,-0.37
2023-02-09T03:46:46.757Z,-0.38
2023-02-09T03:48:18.978Z,-0.36
2023-02-09T03:49:51.128Z,-0.36
2023-02-09T03:51:23.315Z,-0.40
2023-02-09T03:52:55.372Z,-0.39
2023-02-09T03:54:28.577Z,-0.38
2023-02-09T03:56:00.779Z,-0.41
2023-02-09T03:57:33.036Z,-0.41
2023-02-09T03:59:06.165Z,-0.43
2023-02-09T04:00:38.250Z,-0.46
2023-02-09T04:02:17.852Z,-0.44
2023-02-09T04:04:28.491Z,-0.44
2023-02-09T04:06:01.143Z,-0.44
2023-02-09T04:07:33.140Z,-0.43
2023-02-09T04:09:06.146Z,-0.46
2023-02-09T04:10:38.152Z,-0.46
2023-02-09T04:12:10.267Z,-0.47
2023-02-09T04:13:42.194Z,-0.48
2023-02-09T04:15:14.332Z,-0.48
2023-02-09T04:16:46.433Z,-0.50
2023-02-09T04:18:18.786Z,-0.50
2023-02-09T04:20:19.387Z,-0.48
2023-02-09T04:21:51.340Z,-0.51
2023-02-09T04:23:31.235Z,-0.53
2023-02-09T04:25:03.920Z,-0.53
2023-02-09T04:26:36.373Z,-0.52
2023-02-09T04:28:16.464Z,-0.53
2023-02-09T04:29:57.882Z,-0.55
2023-02-09T04:31:31.428Z,-0.56
2023-02-09T04:33:03.592Z,-0.54
2023-02-09T04:34:37.167Z,-0.52
2023-02-09T04:36:09.809Z,-0.55
2023-02-09T04:37:41.979Z,-0.51
2023-02-09T04:39:14.216Z,-0.49
2023-02-09T04:40:50.781Z,-0.48
2023-02-09T04:42:23.010Z,-0.47
2023-02-09T04:43:55.060Z,-0.49
2023-02-09T04:45:27.436Z,-0.48
2023-02-09T04:46:59.784Z,-0.47
2023-02-09T04:48:32.183Z,-0.46
2023-02-09T04:50:04.641Z,-0.48
2023-02-09T04:51:37.074Z,-0.50
2023-02-09T04:53:09.520Z,-0.52
2023-02-09T04:54:43.899Z,-0.50
2023-02-09T04:56:16.439Z,-0.50
2023-02-09T04:58:07.388Z,-0.49
2023-02-09T04:59:41.782Z,-0.51
2023-02-09T05:01:21.587Z,-0.52
2023-02-09T05:02:59.579Z,-0.58
2023-02-09T05:04:33.764Z,-0.58
2023-02-09T05:06:06.574Z,-0.60
2023-02-09T05:07:38.668Z,-0.61
2023-02-09T05:09:10.935Z,-0.65
2023-02-09T05:10:43.418Z,-0.68
2023-02-09T05:12:16.004Z,-0.71
2023-02-09T05:13:48.095Z,-0.71
2023-02-09T05:15:20.464Z,-0.74
2023-02-09T05:16:53.581Z,-0.73
2023-02-09T05:18:26.253Z,-0.73
2023-02-09T05:19:58.897Z,-0.72
2023-02-09T05:21:31.185Z,-0.69
2023-02-09T05:23:03.895Z,-0.69
2023-02-09T05:24:37.005Z,-0.73
2023-02-09T05:26:09.148Z,-0.72
2023-02-09T05:27:41.093Z,-0.70
2023-02-09T05:29:13.083Z,-0.68
2023-02-09T05:30:45.468Z,-0.69
2023-02-09T05:32:18.013Z,-0.68
2023-02-09T05:33:50.180Z,-0.66
2023-02-09T05:35:22.449Z,-0.65
2023-02-09T05:36:54.478Z,-0.68
2023-02-09T05:38:26.577Z,-0.66
2023-02-09T05:39:59.131Z,-0.68
2023-02-09T05:41:49.728Z,-0.68
2023-02-09T05:43:21.852Z,-0.69
2023-02-09T05:44:54.273Z,-0.70
2023-02-09T05:46:26.739Z,-0.71
2023-02-09T05:47:58.742Z,-0.72
2023-02-09T05:49:30.756Z,-0.70
2023-02-09T05:51:02.929Z,-0.70
2023-02-09T05:52:35.237Z,-0.70
2023-02-09T05:54:07.396Z,-0.71
2023-02-09T05:55:39.569Z,-0.73
2023-02-09T05:57:11.728Z,-0.73
2023-02-09T05:58:44.147Z,-0.72
2023-02-09T06:00:16.485Z,-0.72
2023-02-09T06:01:48.547Z,-0.72
2023-02-09T06:03:22.594Z,-0.74
2023-02-09T06:04:54.740Z,-0.73
2023-02-09T06:06:26.885Z,-0.70
2023-02-09T06:07:58.982Z,-0.70
2023-02-09T06:09:31.057Z,-0.74
2023-02-09T06:11:06.243Z,-0.74
2023-02-09T06:12:39.728Z,-0.78
2023-02-09T06:14:13.517Z,-0.78
2023-02-09T06:15:45.661Z,-0.81
2023-02-09T06:17:17.933Z,-0.80
2023-02-09T06:18:50.486Z,-0.79
2023-02-09T06:20:22.571Z,-0.78
2023-02-09T06:21:54.567Z,-0.78
2023-02-09T06:23:26.660Z,-0.81
2023-02-09T06:24:58.738Z,-0.85
2023-02-09T06:26:30.921Z,-0.87
2023-02-09T06:28:03.176Z,-0.88
2023-02-09T06:29:35.427Z,-0.86
2023-02-09T06:31:08.999Z,-0.87
2023-02-09T06:32:41.500Z,-0.83
2023-02-09T06:34:13.717Z,-0.82
2023-02-09T06:35:46.749Z,-0.79
2023-02-09T06:37:21.442Z,-0.84
2023-02-09T06:38:53.528Z,-0.93
2023-02-09T06:40:25.656Z,-0.99
2023-02-09T06:41:57.916Z,-0.97
2023-02-09T06:43:37.954Z,-0.93
2023-02-09T06:45:14.479Z,-0.92
2023-02-09T06:46:49.134Z,-0.98
2023-02-09T06:48:28.368Z,-1.02
2023-02-09T06:50:10.782Z,-1.01
2023-02-09T06:51:43.151Z,-0.99
2023-02-09T06:53:16.379Z,-0.98
2023-02-09T06:54:49.634Z,-0.99
2023-02-09T06:56:21.759Z,-1.01
2023-02-09T06:57:57.094Z,-0.98
2023-02-09T06:59:29.165Z,-0.99
2023-02-09T07:01:11.500Z,-0.99
2023-02-09T07:02:44.690Z,-0.99
2023-02-09T07:04:17.171Z,-0.98
2023-02-09T07:05:51.526Z,-0.98
2023-02-09T07:07:25.509Z,-0.96
2023-02-09T07:08:57.805Z,-0.93
2023-02-09T07:10:30.090Z,-0.94
2023-02-09T07:12:07.227Z,-0.99
2023-02-09T07:13:42.172Z,-1.02
2023-02-09T07:15:15.373Z,-1.02
2023-02-09T07:16:48.783Z,-1.05
2023-02-09T07:18:21.017Z,-1.02
2023-02-09T07:19:56.353Z,-0.98
2023-02-09T07:21:33.294Z,-0.95
2023-02-09T07:23:10.302Z,-0.91
2023-02-09T07:24:46.853Z,-0.86
2023-02-09T07:26:19.331Z,-0.84
2023-02-09T07:27:51.553Z,-0.84
2023-02-09T07:29:31.444Z,-0.80
2023-02-09T07:31:06.735Z,-0.78
2023-02-09T07:32:39.833Z,-0.75
2023-02-09T07:34:11.905Z,-0.74
2023-02-09T07:35:46.840Z,-0.73
2023-02-09T07:37:19.023Z,-0.68
2023-02-09T07:38:51.544Z,-0.66
2023-02-09T07:40:23.877Z,-0.60
2023-02-09T07:41:55.931Z,-0.60
2023-02-09T07:43:28.752Z,-0.56
2023-02-09T07:45:05.254Z,-0.54
2023-02-09T07:46:37.456Z,-0.48
2023-02-09T07:48:11.206Z,-0.43
2023-02-09T07:50:25.715Z,-0.44
2023-02-09T07:51:51.779Z,-0.41
2023-02-09T07:53:24.351Z,-0.42
2023-02-09T07:54:56.679Z,-0.37
2023-02-09T07:56:29.693Z,-0.38
2023-02-09T07:58:02.358Z,-0.37
2023-02-09T07:59:34.898Z,-0.34
2023-02-09T08:01:15.344Z,-0.26
2023-02-09T08:02:49.296Z,-0.22
2023-02-09T08:04:25.140Z,-0.21
2023-02-09T08:06:21.791Z,-0.15
2023-02-09T08:08:08.890Z,-0.09
2023-02-09T08:09:41.330Z,-0.05
2023-02-09T08:11:14.450Z,-0.03
2023-02-09T08:13:03.186Z,-0.02
2023-02-09T08:14:42.066Z,-0.05
2023-02-09T08:16:16.379Z,-0.05
2023-02-09T08:17:50.832Z,-0.03
2023-02-09T08:19:24.247Z,-0.04
2023-02-09T08:20:56.386Z,-0.06
2023-02-09T08:22:31.210Z,-0.07
2023-02-09T08:24:07.348Z,-0.04
2023-02-09T08:25:39.915Z,-0.03
2023-02-09T08:27:14.980Z,-0.01
2023-02-09T08:28:47.557Z,0.02
2023-02-09T08:30:19.944Z,0.05
2023-02-09T08:31:52.205Z,0.11
2023-02-09T08:33:24.503Z,0.10
2023-02-09T08:34:56.773Z,0.14
2023-02-09T08:36:29.998Z,0.12
2023-02-09T08:38:03.557Z,0.15
2023-02-09T08:39:35.775Z,0.20
2023-02-09T08:41:10.638Z,0.25
2023-02-09T08:42:42.949Z,0.25
2023-02-09T08:44:15.986Z,0.32
2023-02-09T08:45:48.638Z,0.37
2023-02-09T08:47:23.882Z,0.40
2023-02-09T08:48:59.263Z,0.43
2023-02-09T08:50:31.405Z,0.47
2023-02-09T08:52:03.892Z,0.49
2023-02-09T08:53:36.729Z,0.50
2023-02-09T08:55:09.098Z,0.55
2023-02-09T08:56:43.274Z,0.55
2023-02-09T08:58:15.869Z,0.61
2023-02-09T08:59:49.470Z,0.69
2023-02-09T09:01:22.077Z,0.72
2023-02-09T09:02:54.438Z,0.77
2023-02-09T09:04:29.215Z,0.84
2023-02-09T09:06:03.759Z,0.91
2023-02-09T09:07:38.259Z,0.99
2023-02-09T09:09:10.446Z,1.05
2023-02-09T09:10:58.942Z,1.11
2023-02-09T09:12:31.569Z,1.18
2023-02-09T09:14:06.509Z,1.24
2023-02-09T09:15:40.461Z,1.33
2023-02-09T09:17:12.828Z,1.31
2023-02-09T09:18:45.913Z,1.36
2023-02-09T09:20:20.642Z,1.41
2023-02-09T09:21:52.921Z,1.47
2023-02-09T09:23:27.699Z,1.56
2023-02-09T09:24:59.865Z,1.62
2023-02-09T09:26:35.916Z,1.69
2023-02-09T09:28:09.343Z,1.79
2023-02-09T09:29:41.827Z,1.85
2023-02-09T09:31:15.906Z,1.98
2023-02-09T09:32:48.232Z,2.06
2023-02-09T09:34:20.606Z,2.13
2023-02-09T09:35:53.000Z,2.21
2023-02-09T09:37:26.823Z,2.25
2023-02-09T09:38:59.088Z,2.30
2023-02-09T09:40:34.717Z,2.31
2023-02-09T09:42:06.793Z,2.35
2023-02-09T09:43:40.252Z,2.36
2023-02-09T09:45:18.128Z,2.41
2023-02-09T09:46:52.236Z,2.48
2023-02-09T09:48:26.715Z,2.49
2023-02-09T09:50:05.560Z,2.54
2023-02-09T09:51:41.554Z,2.57
2023-02-09T09:53:29.038Z,2.62
2023-02-09T09:55:02.028Z,2.70
2023-02-09T09:56:34.169Z,2.77
2023-02-09T09:58:07.444Z,2.75
2023-02-09T09:59:41.968Z,2.76
2023-02-09T10:01:16.156Z,2.72
2023-02-09T10:02:48.504Z,2.76
2023-02-09T10:04:21.514Z,2.83
2023-02-09T10:06:01.474Z,2.95
2023-02-09T10:07:37.622Z,3.00
2023-02-09T10:09:18.739Z,3.12
2023-02-09T10:11:00.859Z,3.28
2023-02-09T10:12:34.215Z,3.32
2023-02-09T10:14:06.305Z,3.34
2023-02-09T10:15:38.646Z,3.34
2023-02-09T10:17:11.307Z,3.37
2023-02-09T10:18:44.867Z,3.45
2023-02-09T10:20:17.064Z,3.49
2023-02-09T10:21:49.343Z,3.41
2023-02-09T10:23:45.791Z,3.40
2023-02-09T10:26:22.902Z,3.42
2023-02-09T10:27:55.019Z,3.48
2023-02-09T10:29:27.485Z,3.54
2023-02-09T10:31:02.618Z,3.68
2023-02-09T10:32:40.968Z,3.75
2023-02-09T10:34:21.672Z,3.84
2023-02-09T10:35:55.830Z,3.91
2023-02-09T10:37:38.228Z,3.89
2023-02-09T10:39:29.330Z,3.87
2023-02-09T10:41:02.217Z,3.91
2023-02-09T10:42:37.876Z,3.99
2023-02-09T10:44:23.887Z,3.94
2023-02-09T10:45:59.323Z,3.94
2023-02-09T10:47:31.866Z,3.89
2023-02-09T10:49:42.111Z,3.92
2023-02-09T10:51:29.575Z,3.99
2023-02-09T10:53:04.223Z,4.11
2023-02-09T10:54:36.538Z,4.23
2023-02-09T10:56:21.575Z,4.32
2023-02-09T10:58:09.602Z,4.37
2023-02-09T10:59:41.694Z,4.39
2023-02-09T11:01:17.695Z,4.39
2023-02-09T11:02:58.119Z,4.49
2023-02-09T11:04:37.850Z,4.52
2023-02-09T11:06:20.132Z,4.53
2023-02-09T11:07:56.195Z,4.59
2023-02-09T11:09:32.026Z,4.68
2023-02-09T11:11:14.083Z,4.81
2023-02-09T11:12:46.877Z,4.89
2023-02-09T11:14:20.183Z,4.91
2023-02-09T11:16:20.872Z,4.95
2023-02-09T11:18:12.325Z,5.03
2023-02-09T11:20:05.388Z,5.07
2023-02-09T11:21:43.458Z,5.07
2023-02-09T11:23:39.295Z,5.12
2023-02-09T11:25:42.708Z,5.14
2023-02-09T11:27:29.688Z,5.12
2023-02-09T11:29:19.059Z,5.13
2023-02-09T11:31:36.371Z,5.22
2023-02-09T11:33:45.919Z,5.35
2023-02-09T11:35:19.899Z,5.37
2023-02-09T11:37:16.771Z,5.39
2023-02-09T11:38:52.498Z,5.39
2023-02-09T11:41:22.777Z,5.46
2023-02-09T11:43:01.251Z,5.52
2023-02-09T11:44:47.315Z,5.52
2023-02-09T11:46:23.394Z,5.47
2023-02-09T11:47:59.797Z,5.46
2023-02-09T11:49:44.366Z,5.47
2023-02-09T11:51:22.583Z,5.44
2023-02-09T11:52:57.908Z,5.45
2023-02-09T11:54:32.224Z,5.46
2023-02-09T11:56:06.945Z,5.51
2023-02-09T11:57:47.681Z,5.48
2023-02-09T11:59:22.530Z,5.52
2023-02-09T12:01:14.575Z,5.55
2023-02-09T12:03:14.088Z,5.54
2023-02-09T12:04:56.454Z,5.56
2023-02-09T12:06:32.676Z,5.65
2023-02-09T12:08:29.079Z,5.79
2023-02-09T12:10:16.359Z,5.93
2023-02-09T12:12:09.059Z,6.08
2023-02-09T12:13:59.792Z,6.20
2023-02-09T12:15:41.074Z,6.20
2023-02-09T12:17:37.611Z,6.18
2023-02-09T12:19:46.265Z,6.20
2023-02-09T12:21:32.654Z,6.20
2023-02-09T12:23:36.961Z,6.21
2023-02-09T12:25:11.771Z,6.11
2023-02-09T12:26:44.726Z,6.04
2023-02-09T12:28:37.674Z,6.07
2023-02-09T12:30:40.724Z,6.04
2023-02-09T12:32:22.696Z,6.01
2023-02-09T12:34:10.755Z,6.04
2023-02-09T12:35:43.089Z,6.01
2023-02-09T12:37:15.132Z,6.08
2023-02-09T12:39:24.955Z,6.12
2023-02-09T12:41:06.062Z,6.18
2023-02-09T12:43:07.300Z,6.17
2023-02-09T12:44:56.843Z,6.18
2023-02-09T12:46:29.111Z,6.22
2023-02-09T12:48:09.077Z,6.20
2023-02-09T12:49:44.049Z,6.23
2023-02-09T12:51:53.444Z,6.32
2023-02-09T12:53:26.614Z,6.31
2023-02-09T12:54:58.771Z,6.35
2023-02-09T12:56:32.433Z,6.36
2023-02-09T12:58:42.876Z,6.38
2023-02-09T13:00:14.958Z,6.41
2023-02-09T13:02:08.626Z,6.37
2023-02-09T13:03:56.082Z,6.41
2023-02-09T13:05:39.962Z,6.40
2023-02-09T13:07:34.065Z,6.50
2023-02-09T13:09:09.616Z,6.55
2023-02-09T13:10:42.448Z,6.59
2023-02-09T13:12:18.950Z,6.57
2023-02-09T13:13:55.693Z,6.58
2023-02-09T13:15:34.532Z,6.55
2023-02-09T13:17:40.337Z,6.56
2023-02-09T13:19:14.549Z,6.62
2023-02-09T13:21:10.740Z,6.62
2023-02-09T13:22:53.810Z,6.68
2023-02-09T13:24:36.336Z,6.73
2023-02-09T13:26:23.234Z,6.75
2023-02-09T13:27:55.862Z,6.74
2023-02-09T13:29:35.840Z,6.81
2023-02-09T13:31:24.699Z,6.87
2023-02-09T13:33:06.572Z,6.90
2023-02-09T13:34:59.052Z,6.92
2023-02-09T13:36:54.950Z,6.92
2023-02-09T13:38:32.292Z,6.92
2023-02-09T13:40:15.023Z,6.95
2023-02-09T13:41:51.140Z,6.96
2023-02-09T13:43:40.465Z,6.94
2023-02-09T13:45:17.596Z,6.94
2023-02-09T13:46:55.956Z,6.88
2023-02-09T13:48:30.733Z,6.85
2023-02-09T13:50:13.110Z,6.81
2023-02-09T13:51:45.454Z,6.79
2023-02-09T13:53:19.778Z,6.79
2023-02-09T13:54:53.155Z,6.80
2023-02-09T13:56:25.613Z,6.79
2023-02-09T13:58:03.496Z,6.81
2023-02-09T13:59:35.737Z,6.81
2023-02-09T14:01:15.958Z,6.80
2023-02-09T14:02:56.423Z,6.81
2023-02-09T14:04:31.282Z,6.79
2023-02-09T14:06:16.141Z,6.76
2023-02-09T14:07:48.354Z,6.79
2023-02-09T14:09:25.489Z,6.81
2023-02-09T14:11:05.455Z,6.75
2023-02-09T14:12:55.972Z,6.79
2023-02-09T14:14:53.848Z,6.78
2023-02-09T14:16:28.107Z,6.73
2023-02-09T14:18:00.438Z,6.71
2023-02-09T14:19:33.040Z,6.69
2023-02-09T14:21:11.092Z,6.68
2023-02-09T14:22:43.233Z,6.64
2023-02-09T14:24:22.068Z,6.58
2023-02-09T14:26:22.940Z,6.58
2023-02-09T14:27:55.538Z,6.56
2023-02-09T14:29:35.648Z,6.50
2023-02-09T14:31:33.585Z,6.51
2023-02-09T14:33:06.404Z,6.49
2023-02-09T14:34:39.944Z,6.46
2023-02-09T14:36:22.507Z,6.44
2023-02-09T14:37:59.795Z,6.41
2023-02-09T14:39:32.307Z,6.38
2023-02-09T14:41:29.177Z,6.41
2023-02-09T14:43:18.650Z,6.43
2023-02-09T14:44:55.698Z,6.42
2023-02-09T14:46:28.339Z,6.42
2023-02-09T14:48:00.639Z,6.42
2023-02-09T14:49:34.452Z,6.39
2023-02-09T14:51:16.307Z,6.39
2023-02-09T14:52:50.538Z,6.40
2023-02-09T14:54:25.991Z,6.38
2023-02-09T14:56:00.890Z,6.37
2023-02-09T14:57:33.650Z,6.35
2023-02-09T14:59:06.221Z,6.36
2023-02-09T15:00:38.540Z,6.40
2023-02-09T15:02:20.613Z,6.38
2023-02-09T15:03:52.880Z,6.37
2023-02-09T15:05:29.044Z,6.32
2023-02-09T15:07:02.989Z,6.31
2023-02-09T15:08:38.701Z,6.31
2023-02-09T15:10:33.353Z,6.28
2023-02-09T15:12:26.874Z,6.28
2023-02-09T15:14:05.424Z,6.27
2023-02-09T15:15:39.980Z,6.27
2023-02-09T15:17:24.291Z,6.25
2023-02-09T15:18:59.636Z,6.24
2023-02-09T15:20:32.761Z,6.23
2023-02-09T15:22:07.710Z,6.23
2023-02-09T15:23:41.522Z,6.18
2023-02-09T15:25:14.950Z,6.13
2023-02-09T15:26:47.271Z,6.13
2023-02-09T15:28:34.672Z,6.12
2023-02-09T15:30:17.881Z,6.11
2023-02-09T15:31:50.135Z,6.11
2023-02-09T15:33:22.425Z,6.11
2023-02-09T15:34:54.955Z,6.14
2023-02-09T15:36:27.382Z,6.12
2023-02-09T15:38:02.715Z,6.10
2023-02-09T15:39:34.931Z,6.09
2023-02-09T15:41:25.828Z,6.05
2023-02-09T15:43:16.621Z,6.03
2023-02-09T15:45:07.787Z,6.02
2023-02-09T15:46:58.742Z,6.03
2023-02-09T15:48:32.532Z,6.01
2023-02-09T15:50:05.005Z,6.01
2023-02-09T15:51:38.797Z,5.98
2023-02-09T15:53:15.331Z,5.96
2023-02-09T15:54:49.503Z,5.95
2023-02-09T15:56:21.832Z,5.97
2023-02-09T15:57:54.970Z,5.98
2023-02-09T15:59:29.535Z,5.97
2023-02-09T16:01:01.904Z,5.95
2023-02-09T16:02:34.350Z,5.94
2023-02-09T16:04:16.633Z,5.97
2023-02-09T16:05:50.113Z,5.96
2023-02-09T16:07:28.115Z,5.99
2023-02-09T16:09:02.842Z,5.99
2023-02-09T16:10:38.684Z,5.98
2023-02-09T16:12:23.575Z,5.98
2023-02-09T16:13:59.425Z,5.98
2023-02-09T16:15:41.923Z,5.96
2023-02-09T16:17:23.106Z,5.96
2023-02-09T16:19:01.288Z,5.95
2023-02-09T16:20:41.188Z,5.92
2023-02-09T16:22:14.278Z,5.90
2023-02-09T16:23:50.151Z,5.91
2023-02-09T16:25:24.896Z,5.88
2023-02-09T16:27:05.324Z,5.84
2023-02-09T16:28:45.067Z,5.84
2023-02-09T16:30:25.674Z,5.82
2023-02-09T16:32:00.466Z,5.80
2023-02-09T16:33:32.883Z,5.78
2023-02-09T16:35:16.920Z,5.78
2023-02-09T16:36:50.030Z,5.79
2023-02-09T16:38:24.368Z,5.80
2023-02-09T16:40:05.591Z,5.78
2023-02-09T16:42:08.793Z,5.78
2023-02-09T16:43:54.395Z,5.78
2023-02-09T16:45:32.319Z,5.77
2023-02-09T16:47:19.785Z,5.76
2023-02-09T16:49:03.707Z,5.71
2023-02-09T16:50:53.816Z,5.71
2023-02-09T16:52:50.525Z,5.70
2023-02-09T16:54:25.388Z,5.68
2023-02-09T16:56:00.706Z,5.66
2023-02-09T16:57:33.180Z,5.67
2023-02-09T16:59:05.439Z,5.66
2023-02-09T17:00:38.969Z,5.67
2023-02-09T17:02:43.752Z,5.66
2023-02-09T17:04:18.288Z,5.64
2023-02-09T17:05:55.008Z,5.63
2023-02-09T17:07:45.458Z,5.63
2023-02-09T17:09:28.814Z,5.67
2023-02-09T17:11:03.327Z,5.66
2023-02-09T17:12:36.356Z,5.62
2023-02-09T17:14:08.680Z,5.63
2023-02-09T17:15:52.556Z,5.61
2023-02-09T17:17:27.084Z,5.61
2023-02-09T17:19:02.106Z,5.60
2023-02-09T17:20:41.737Z,5.61
2023-02-09T17:22:14.412Z,5.62
2023-02-09T17:23:50.341Z,5.61
2023-02-09T17:25:23.295Z,5.65
2023-02-09T17:26:55.693Z,5.60
2023-02-09T17:28:30.843Z,5.58
2023-02-09T17:30:08.802Z,5.59
2023-02-09T17:31:52.689Z,5.62
2023-02-09T17:33:34.154Z,5.63
2023-02-09T17:35:16.930Z,5.62
2023-02-09T17:36:49.367Z,5.61
2023-02-09T17:38:33.250Z,5.62
2023-02-09T17:40:05.875Z,5.59
2023-02-09T17:41:51.119Z,5.59
2023-02-09T17:43:23.869Z,5.58
2023-02-09T17:44:57.611Z,5.59
2023-02-09T17:46:30.573Z,5.59
2023-02-09T17:48:03.136Z,5.56
2023-02-09T17:49:35.564Z,5.54
2023-02-09T17:51:19.870Z,5.56
2023-02-09T17:52:55.049Z,5.56
2023-02-09T17:54:32.850Z,5.54
2023-02-09T17:56:05.674Z,5.55
2023-02-09T17:57:41.595Z,5.56
2023-02-09T17:59:15.269Z,5.55
2023-02-09T18:00:47.711Z,5.54
2023-02-09T18:02:20.882Z,5.53
2023-02-09T18:03:56.991Z,5.53
2023-02-09T18:05:32.198Z,5.55
2023-02-09T18:07:08.026Z,5.53
2023-02-09T18:08:42.779Z,5.53
2023-02-09T18:10:16.181Z,5.53
2023-02-09T18:11:51.199Z,5.54
2023-02-09T18:13:25.837Z,5.52
2023-02-09T18:14:59.779Z,5.53
2023-02-09T18:16:32.234Z,5.54
2023-02-09T18:18:08.541Z,5.52
2023-02-09T18:19:40.794Z,5.53
2023-02-09T18:21:16.042Z,5.54
2023-02-09T18:22:51.950Z,5.54
2023-02-09T18:24:36.143Z,5.50
2023-02-09T18:26:10.849Z,5.50
2023-02-09T18:27:46.787Z,5.49
2023-02-09T18:29:23.990Z,5.50
2023-02-09T18:31:03.405Z,5.48
2023-02-09T18:32:37.580Z,5.49
2023-02-09T18:34:13.301Z,5.50
2023-02-09T18:35:49.699Z,5.49
2023-02-09T18:37:22.311Z,5.47
2023-02-09T18:38:55.550Z,5.46
2023-02-09T18:40:39.286Z,5.47
2023-02-09T18:42:13.982Z,5.45
2023-02-09T18:43:58.674Z,5.46
2023-02-09T18:46:04.500Z,5.45
2023-02-09T18:47:51.412Z,5.44
2023-02-09T18:49:23.599Z,5.45
2023-02-09T18:52:57.023Z,5.43
2023-02-09T18:54:31.524Z,5.44
2023-02-09T18:56:07.058Z,5.42
2023-02-09T18:57:43.635Z,5.41
2023-02-09T18:59:17.958Z,5.40
2023-02-09T19:00:54.302Z,5.43
2023-02-09T19:02:29.013Z,5.44
2023-02-09T19:04:01.423Z,5.43
2023-02-09T19:05:34.915Z,5.43
2023-02-09T19:07:09.845Z,5.43
2023-02-09T19:08:41.969Z,5.44
2023-02-09T19:10:17.857Z,5.43
2023-02-09T19:11:49.996Z,5.44
2023-02-09T19:13:22.445Z,5.44
2023-02-09T19:14:54.500Z,5.44
2023-02-09T19:16:26.783Z,5.44
2023-02-09T19:17:58.945Z,5.48
2023-02-09T19:19:31.049Z,5.44
2023-02-09T19:21:07.021Z,5.45
2023-02-09T19:22:39.409Z,5.44
2023-02-09T19:24:11.572Z,5.44
2023-02-09T19:26:03.147Z,5.44
2023-02-09T19:27:36.073Z,5.44
2023-02-09T19:29:08.340Z,5.45
2023-02-09T19:30:42.223Z,5.44
2023-02-09T19:32:15.247Z,5.45
2023-02-09T19:33:47.270Z,5.43
2023-02-09T19:35:22.537Z,5.43
2023-02-09T19:36:54.663Z,5.42
2023-02-09T19:38:27.237Z,5.40
2023-02-09T19:40:07.591Z,5.41
2023-02-09T19:41:39.863Z,5.40
2023-02-09T19:43:13.558Z,5.38
2023-02-09T19:44:45.703Z,5.39
2023-02-09T19:46:20.373Z,5.39
2023-02-09T19:47:52.801Z,5.39
2023-02-09T19:49:52.246Z,5.38
2023-02-09T19:51:40.022Z,5.41
2023-02-09T19:53:21.340Z,5.42
2023-02-09T19:55:14.761Z,5.40
2023-02-09T19:57:02.370Z,5.43
2023-02-09T19:58:48.971Z,5.37
2023-02-09T20:00:24.610Z,5.36
2023-02-09T20:02:06.035Z,5.36
2023-02-09T20:03:40.820Z,5.35
2023-02-09T20:05:13.505Z,5.34
2023-02-09T20:06:45.769Z,5.35
2023-02-09T20:08:19.387Z,5.34
2023-02-09T20:09:52.741Z,5.35
2023-02-09T20:11:24.914Z,5.34
2023-02-09T20:12:59.429Z,5.35
2023-02-09T20:14:37.405Z,5.34
2023-02-09T20:16:48.665Z,5.36
2023-02-09T20:18:47.430Z,5.35
2023-02-09T20:20:30.311Z,5.37
2023-02-09T20:22:02.610Z,5.34
2023-02-09T20:23:50.157Z,5.33
2023-02-09T20:25:54.064Z,5.33
2023-02-09T20:27:26.335Z,5.34
2023-02-09T20:28:59.332Z,5.35
2023-02-09T20:30:33.163Z,5.36
2023-02-09T20:32:05.476Z,5.36
2023-02-09T20:33:39.013Z,5.36
2023-02-09T20:35:12.071Z,5.36
2023-02-09T20:36:45.749Z,5.39
2023-02-09T20:38:17.856Z,5.39
2023-02-09T20:39:50.388Z,5.41
2023-02-09T20:41:22.691Z,5.37
2023-02-09T20:43:13.475Z,5.35
2023-02-09T20:45:04.627Z,5.38
2023-02-09T20:46:55.657Z,5.36
2023-02-09T20:48:27.796Z,5.34
2023-02-09T20:50:00.633Z,5.37
2023-02-09T20:51:32.803Z,5.37
2023-02-09T20:53:05.910Z,5.34
2023-02-09T20:54:38.349Z,5.34
2023-02-09T20:56:10.602Z,5.37
2023-02-09T20:57:42.857Z,5.33
2023-02-09T20:59:15.382Z,5.31
2023-02-09T21:00:47.663Z,5.31
2023-02-09T21:02:20.455Z,5.29
2023-02-09T21:03:59.015Z,5.28
2023-02-09T21:05:31.037Z,5.26
2023-02-09T21:07:04.602Z,5.26
2023-02-09T21:08:38.836Z,5.24
2023-02-09T21:10:13.093Z,5.21
2023-02-09T21:11:45.274Z,5.22
2023-02-09T21:13:17.480Z,5.20
2023-02-09T21:14:50.957Z,5.18
2023-02-09T21:16:25.613Z,5.18
2023-02-09T21:17:57.926Z,5.17
2023-02-09T21:19:30.473Z,5.17
2023-02-09T21:21:08.120Z,5.15
2023-02-09T21:22:40.260Z,5.13
2023-02-09T21:24:12.283Z,5.14
2023-02-09T21:25:45.841Z,5.15
2023-02-09T21:27:17.813Z,5.15
2023-02-09T21:28:51.709Z,5.14